Terminal Aerodrome Forecast
Issued by NWS Riverton, WY

Home | Current Version | Previous Version | Text Only | Print | Product List | Glossary On
Versions: 1 2 3 4 5 6 7 8 9 10 11 12 13 14 15 16 17 18
128
FTUS45 KRIW 201133
TAFRIW
TAF
KRIW 201133Z 2012/2112 20011KT P6SM SKC
     FM201700 24018G26KT P6SM SCT100 SCT200
     FM202000 25022G30KT P6SM SCT070 BKN200
     FM210100 28013G19KT P6SM SCT060 BKN120=

USA.gov is the U.S. government's official web portal to all federal, state and local government web resources and services.